createdAt,value
2023-05-12T00:02:09.216Z,102194.38
2023-05-12T00:04:40.116Z,102186.59
2023-05-12T00:07:10.388Z,102183.91
2023-05-12T00:09:42.965Z,102182.09
2023-05-12T00:12:13.259Z,102179.44
2023-05-12T00:14:43.985Z,102173.25
2023-05-12T00:17:15.360Z,102176.31
2023-05-12T00:19:45.711Z,102169.38
2023-05-12T00:22:16.895Z,102171.28
2023-05-12T00:24:47.051Z,102164.34
2023-05-12T00:27:17.433Z,102168.63
2023-05-12T00:29:47.719Z,102169.03
2023-05-12T00:32:18.165Z,102165.97
2023-05-12T00:34:48.736Z,102159.06
2023-05-12T00:37:18.914Z,102154.03
2023-05-12T00:39:49.109Z,102151.97
2023-05-12T00:42:19.788Z,102152.22
2023-05-12T00:44:50.153Z,102165.31
2023-05-12T00:47:21.936Z,102154.19
2023-05-12T00:49:52.571Z,102153.91
2023-05-12T00:52:23.057Z,102156.72
2023-05-12T00:54:53.704Z,102164.28
2023-05-12T00:57:24.526Z,102155.47
2023-05-12T00:59:54.914Z,102163.94
2023-05-12T01:02:25.737Z,102152.00
2023-05-12T01:04:56.442Z,102158.56
2023-05-12T01:07:27.507Z,102157.59
2023-05-12T01:09:58.073Z,102163.19
2023-05-12T01:12:33.733Z,102165.66
2023-05-12T01:15:06.191Z,102171.78
2023-05-12T01:17:36.620Z,102164.63
2023-05-12T01:20:09.394Z,102164.53
2023-05-12T01:22:40.184Z,102162.19
2023-05-12T01:25:13.130Z,102155.44
2023-05-12T01:27:43.882Z,102157.94
2023-05-12T01:30:17.792Z,102152.53
2023-05-12T01:32:48.345Z,102145.75
2023-05-12T01:35:18.686Z,102153.38
2023-05-12T01:37:56.574Z,102151.75
2023-05-12T01:40:27.221Z,102157.28
2023-05-12T01:42:58.658Z,102154.09
2023-05-12T01:45:32.727Z,102156.41
2023-05-12T01:48:03.323Z,102151.25
2023-05-12T01:50:33.675Z,102154.03
2023-05-12T01:53:05.248Z,102161.41
2023-05-12T01:55:36.044Z,102167.09
2023-05-12T01:58:06.299Z,102172.84
2023-05-12T02:00:37.716Z,102171.16
2023-05-12T02:03:16.036Z,102166.97
2023-05-12T02:05:46.497Z,102173.66
2023-05-12T02:08:16.644Z,102175.16
2023-05-12T02:10:47.274Z,102170.03
2023-05-12T02:13:17.599Z,102163.03
2023-05-12T02:15:48.555Z,102160.28
2023-05-12T02:18:19.816Z,102162.53
2023-05-12T02:20:50.628Z,102165.41
2023-05-12T02:23:21.146Z,102168.06
2023-05-12T02:25:51.669Z,102169.97
2023-05-12T02:28:22.151Z,102174.41
2023-05-12T02:30:54.403Z,102173.84
2023-05-12T02:33:25.000Z,102169.25
2023-05-12T02:35:55.820Z,102165.66
2023-05-12T02:38:27.309Z,102169.66
2023-05-12T02:40:57.859Z,102173.38
2023-05-12T02:43:28.640Z,102180.00
2023-05-12T02:45:58.993Z,102192.09
2023-05-12T02:48:29.811Z,102187.19
2023-05-12T02:51:00.523Z,102188.03
2023-05-12T02:53:31.433Z,102193.09
2023-05-12T02:56:01.770Z,102186.97
2023-05-12T02:58:32.184Z,102192.25
2023-05-12T03:01:10.129Z,102197.63
2023-05-12T03:03:43.660Z,102200.31
2023-05-12T03:06:13.998Z,102200.88
2023-05-12T03:08:44.300Z,102193.72
2023-05-12T03:11:14.601Z,102202.06
2023-05-12T03:13:45.744Z,102195.72
2023-05-12T03:16:19.602Z,102193.13
2023-05-12T03:18:51.421Z,102202.28
2023-05-12T03:21:21.614Z,102200.84
2023-05-12T03:23:52.063Z,102203.53
2023-05-12T03:26:22.540Z,102199.31
2023-05-12T03:28:52.995Z,102190.53
2023-05-12T03:31:24.075Z,102196.81
2023-05-12T03:33:55.032Z,102197.66
2023-05-12T03:36:25.918Z,102193.56
2023-05-12T03:38:56.447Z,102188.19
2023-05-12T03:41:26.585Z,102194.84
2023-05-12T03:43:57.169Z,102204.03
2023-05-12T03:46:27.845Z,102206.41
2023-05-12T03:48:58.314Z,102206.13
2023-05-12T03:51:29.603Z,102210.84
2023-05-12T03:53:59.980Z,102215.16
2023-05-12T03:56:30.908Z,102219.47
2023-05-12T03:59:01.075Z,102219.28
2023-05-12T04:01:31.471Z,102241.91
2023-05-12T04:04:03.974Z,102233.16
2023-05-12T04:06:34.608Z,102240.44
2023-05-12T04:09:06.272Z,102242.31
2023-05-12T04:11:36.478Z,102245.03
2023-05-12T04:14:06.813Z,102250.72
2023-05-12T04:16:42.091Z,102249.06
2023-05-12T04:19:12.422Z,102250.75
2023-05-12T04:21:42.564Z,102261.16
2023-05-12T04:24:12.733Z,102259.00
2023-05-12T04:26:43.082Z,102265.69
2023-05-12T04:29:14.745Z,102272.53
2023-05-12T04:31:45.117Z,102266.31
2023-05-12T04:34:15.420Z,102273.47
2023-05-12T04:36:45.850Z,102271.72
2023-05-12T04:39:16.343Z,102273.03
2023-05-12T04:41:46.688Z,102273.53
2023-05-12T04:44:17.778Z,102275.09
2023-05-12T04:46:48.327Z,102279.75
2023-05-12T04:49:18.633Z,102283.56
2023-05-12T04:51:50.681Z,102279.88
2023-05-12T04:54:21.055Z,102287.22
2023-05-12T04:56:51.426Z,102280.22
2023-05-12T04:59:22.090Z,102275.34
2023-05-12T05:01:54.608Z,102274.72
2023-05-12T05:04:25.402Z,102283.91
2023-05-12T05:06:57.354Z,102287.09
2023-05-12T05:09:30.407Z,102284.25
2023-05-12T05:12:03.046Z,102291.25
2023-05-12T05:14:33.899Z,102297.16
2023-05-12T05:17:05.410Z,102292.00
2023-05-12T05:19:50.968Z,102300.72
2023-05-12T05:22:26.261Z,102299.94
2023-05-12T05:24:56.753Z,102298.44
2023-05-12T05:27:27.071Z,102303.25
2023-05-12T05:29:57.522Z,102304.59
2023-05-12T05:32:29.362Z,102302.56
2023-05-12T05:35:02.678Z,102310.66
2023-05-12T05:37:35.557Z,102311.34
2023-05-12T05:40:06.613Z,102309.69
2023-05-12T05:42:37.117Z,102310.00
2023-05-12T05:45:07.973Z,102319.38
2023-05-12T05:47:39.047Z,102329.28
2023-05-12T05:50:10.726Z,102329.91
2023-05-12T05:52:43.673Z,102332.81
2023-05-12T05:55:14.413Z,102338.91
2023-05-12T05:57:44.893Z,102336.06
2023-05-12T06:00:15.853Z,102348.09
2023-05-12T06:02:50.192Z,102347.69
2023-05-12T06:05:24.377Z,102363.47
2023-05-12T06:07:54.751Z,102362.81
2023-05-12T06:10:25.129Z,102367.81
2023-05-12T06:12:55.442Z,102375.06
2023-05-12T06:15:25.785Z,102378.56
2023-05-12T06:17:56.165Z,102377.56
2023-05-12T06:20:30.681Z,102377.75
2023-05-12T06:23:02.378Z,102371.75
2023-05-12T06:25:34.742Z,102388.16
2023-05-12T06:28:07.222Z,102386.72
2023-05-12T06:30:37.826Z,102393.16
2023-05-12T06:33:08.964Z,102393.34
2023-05-12T06:35:42.128Z,102392.09
2023-05-12T06:38:13.647Z,102408.28
2023-05-12T06:40:46.497Z,102404.97
2023-05-12T06:43:17.178Z,102429.56
2023-05-12T06:45:48.398Z,102421.84
2023-05-12T06:48:18.601Z,102421.84
2023-05-12T06:50:49.744Z,102423.88
2023-05-12T06:53:22.846Z,102436.03
2023-05-12T06:55:57.160Z,102435.81
2023-05-12T06:58:27.765Z,102432.94
2023-05-12T07:00:58.008Z,102429.81
2023-05-12T07:03:28.427Z,102440.34
2023-05-12T07:05:58.839Z,102449.25
2023-05-12T07:08:29.308Z,102457.59
2023-05-12T07:11:01.400Z,102455.78
2023-05-12T07:13:31.784Z,102466.44
2023-05-12T07:16:02.789Z,102466.19
2023-05-12T07:18:52.130Z,102471.06
2023-05-12T07:21:35.437Z,102474.47
2023-05-12T07:24:07.770Z,102475.44
2023-05-12T07:26:38.136Z,102476.47
2023-05-12T07:29:09.105Z,102489.72
2023-05-12T07:31:40.127Z,102485.78
2023-05-12T07:34:10.770Z,102496.69
2023-05-12T07:36:41.241Z,102488.69
2023-05-12T07:39:11.513Z,102488.16
2023-05-12T07:41:41.868Z,102493.19
2023-05-12T07:44:12.251Z,102478.00
2023-05-12T07:46:42.772Z,102498.25
2023-05-12T07:49:13.116Z,102500.81
2023-05-12T07:51:43.503Z,102499.09
2023-05-12T07:54:13.832Z,102499.88
2023-05-12T07:56:44.218Z,102494.59
2023-05-12T07:59:15.814Z,102500.16
2023-05-12T08:01:46.131Z,102501.03
2023-05-12T08:04:16.747Z,102499.72
2023-05-12T08:06:47.075Z,102498.09
2023-05-12T08:09:17.454Z,102500.28
2023-05-12T08:11:49.414Z,102505.56
2023-05-12T08:14:21.624Z,102503.41
2023-05-12T08:16:55.004Z,102509.84
2023-05-12T08:19:25.475Z,102513.72
2023-05-12T08:21:55.594Z,102512.44
2023-05-12T08:24:26.527Z,102515.00
2023-05-12T08:26:56.874Z,102518.66
2023-05-12T08:29:27.211Z,102518.13
2023-05-12T08:31:57.530Z,102514.09
2023-05-12T08:34:27.876Z,102514.53
2023-05-12T08:36:58.051Z,102527.94
2023-05-12T08:39:32.354Z,102529.88
2023-05-12T08:42:12.112Z,102530.44
2023-05-12T08:44:42.574Z,102531.84
2023-05-12T08:47:14.741Z,102538.31
2023-05-12T08:49:45.151Z,102541.56
2023-05-12T08:52:15.646Z,102538.84
2023-05-12T08:54:55.575Z,102552.09
2023-05-12T08:57:28.716Z,102557.13
2023-05-12T09:00:01.442Z,102556.97
2023-05-12T09:02:51.455Z,102560.84
2023-05-12T09:05:24.308Z,102558.88
2023-05-12T09:07:55.294Z,102558.69
2023-05-12T09:10:34.930Z,102550.81
2023-05-12T09:13:07.148Z,102561.81
2023-05-12T09:15:38.805Z,102570.00
2023-05-12T09:18:09.223Z,102569.66
2023-05-12T09:20:39.357Z,102564.41
2023-05-12T09:23:16.421Z,102560.41
2023-05-12T09:25:48.391Z,102567.28
2023-05-12T09:28:18.755Z,102575.63
2023-05-12T09:30:49.044Z,102577.78
2023-05-12T09:33:19.210Z,102572.50
2023-05-12T09:35:49.555Z,102575.56
2023-05-12T09:38:19.802Z,102578.72
2023-05-12T09:40:50.465Z,102574.38
2023-05-12T09:43:20.726Z,102576.84
2023-05-12T09:45:52.181Z,102575.81
2023-05-12T09:48:24.438Z,102584.88
2023-05-12T09:50:56.345Z,102579.91
2023-05-12T09:53:29.425Z,102577.53
2023-05-12T09:55:59.786Z,102578.22
2023-05-12T09:58:30.101Z,102577.06
2023-05-12T10:01:20.808Z,102579.50
2023-05-12T10:03:58.339Z,102579.84
2023-05-12T10:06:32.524Z,102586.72
2023-05-12T10:09:02.669Z,102581.03
2023-05-12T10:11:53.804Z,102581.72
2023-05-12T10:14:37.374Z,102583.66
2023-05-12T10:17:11.456Z,102592.44
2023-05-12T10:19:43.675Z,102595.94
2023-05-12T10:22:14.042Z,102591.44
2023-05-12T10:24:44.488Z,102597.13
2023-05-12T10:27:14.646Z,102599.19
2023-05-12T10:29:44.905Z,102609.91
2023-05-12T10:32:16.088Z,102613.25
2023-05-12T10:34:46.838Z,102608.88
2023-05-12T10:37:17.195Z,102616.75
2023-05-12T10:39:51.117Z,102613.91
2023-05-12T10:42:28.268Z,102608.06
2023-05-12T10:44:58.576Z,102606.59
2023-05-12T10:47:38.170Z,102609.44
2023-05-12T10:50:09.305Z,102618.66
2023-05-12T10:52:45.015Z,102616.25
2023-05-12T10:55:15.998Z,102611.03
2023-05-12T10:57:53.427Z,102604.84
2023-05-12T11:00:27.946Z,102610.34
2023-05-12T11:03:04.102Z,102613.91
2023-05-12T11:05:38.795Z,102622.44
2023-05-12T11:08:09.669Z,102623.25
2023-05-12T11:10:42.969Z,102617.91
2023-05-12T11:13:13.193Z,102620.50
2023-05-12T11:15:45.904Z,102621.28
2023-05-12T11:18:22.081Z,102618.59
2023-05-12T11:20:52.905Z,102595.66
2023-05-12T11:23:27.016Z,102612.19
2023-05-12T11:25:57.961Z,102619.72
2023-05-12T11:28:28.588Z,102620.44
2023-05-12T11:30:58.713Z,102610.88
2023-05-12T11:33:28.875Z,102615.09
2023-05-12T11:35:59.188Z,102614.59
2023-05-12T11:38:31.445Z,102623.19
2023-05-12T11:41:01.811Z,102617.34
2023-05-12T11:43:32.019Z,102625.72
2023-05-12T11:46:02.779Z,102627.38
2023-05-12T11:48:36.387Z,102623.72
2023-05-12T11:51:06.894Z,102631.91
2023-05-12T11:53:41.901Z,102624.72
2023-05-12T11:56:13.103Z,102621.03
2023-05-12T11:58:43.359Z,102610.63
2023-05-12T12:01:14.132Z,102618.00
2023-05-12T12:03:50.309Z,102621.69
2023-05-12T12:06:21.459Z,102621.03
2023-05-12T12:09:03.731Z,102617.69
2023-05-12T12:11:36.073Z,102617.13
2023-05-12T12:14:06.487Z,102617.69
2023-05-12T12:16:36.696Z,102622.03
2023-05-12T12:19:10.110Z,102614.63
2023-05-12T12:21:40.557Z,102612.94
2023-05-12T12:24:10.843Z,102618.50
2023-05-12T12:26:41.052Z,102624.69
2023-05-12T12:29:11.338Z,102618.19
2023-05-12T12:31:41.805Z,102618.16
2023-05-12T12:34:12.089Z,102628.44
2023-05-12T12:36:42.711Z,102616.72
2023-05-12T12:39:13.379Z,102622.28
2023-05-12T12:41:44.997Z,102628.34
2023-05-12T12:44:15.426Z,102623.84
2023-05-12T12:46:45.871Z,102625.75
2023-05-12T12:49:16.579Z,102629.53
2023-05-12T12:51:47.438Z,102626.09
2023-05-12T12:54:17.627Z,102631.81
2023-05-12T12:56:48.748Z,102638.00
2023-05-12T12:59:19.525Z,102645.72
2023-05-12T13:01:50.339Z,102645.19
2023-05-12T13:04:24.174Z,102632.47
2023-05-12T13:06:54.363Z,102637.97
2023-05-12T13:09:24.967Z,102635.50
2023-05-12T13:11:55.304Z,102643.28
2023-05-12T13:14:26.436Z,102639.13
2023-05-12T13:16:56.620Z,102640.28
2023-05-12T13:19:28.943Z,102645.19
2023-05-12T13:21:59.279Z,102640.34
2023-05-12T13:24:29.868Z,102639.97
2023-05-12T13:27:00.393Z,102646.50
2023-05-12T13:29:31.306Z,102649.84
2023-05-12T13:32:01.702Z,102653.16
2023-05-12T13:34:31.838Z,102659.59
2023-05-12T13:37:02.371Z,102653.38
2023-05-12T13:39:33.452Z,102638.38
2023-05-12T13:42:04.716Z,102641.84
2023-05-12T13:44:35.094Z,102651.50
2023-05-12T13:47:05.460Z,102651.13
2023-05-12T13:49:36.361Z,102641.56
2023-05-12T13:52:07.102Z,102645.81
2023-05-12T13:54:37.455Z,102640.75
2023-05-12T13:57:07.724Z,102638.66
2023-05-12T13:59:37.838Z,102641.56
2023-05-12T14:02:10.961Z,102632.69
2023-05-12T14:04:41.449Z,102640.56
2023-05-12T14:07:11.986Z,102634.56
2023-05-12T14:09:42.661Z,102636.13
2023-05-12T14:12:12.982Z,102627.84
2023-05-12T14:14:48.573Z,102630.19
2023-05-12T14:17:20.092Z,102640.88
2023-05-12T14:19:51.044Z,102640.13
2023-05-12T14:22:26.579Z,102639.72
2023-05-12T14:24:57.268Z,102638.72
2023-05-12T14:27:27.454Z,102627.34
2023-05-12T14:29:57.847Z,102628.50
2023-05-12T14:32:28.535Z,102627.69
2023-05-12T14:34:58.947Z,102628.81
2023-05-12T14:37:29.267Z,102636.63
2023-05-12T14:39:59.623Z,102634.72
2023-05-12T14:42:31.933Z,102635.72
2023-05-12T14:45:02.344Z,102637.38
2023-05-12T14:47:33.326Z,102633.50
2023-05-12T14:50:03.807Z,102635.31
2023-05-12T14:52:39.650Z,102632.63
2023-05-12T14:55:13.503Z,102626.19
2023-05-12T14:57:43.927Z,102633.84
2023-05-12T15:00:14.796Z,102628.16
2023-05-12T15:02:45.884Z,102630.44
2023-05-12T15:05:17.679Z,102631.88
2023-05-12T15:07:48.436Z,102626.50
2023-05-12T15:10:19.051Z,102636.78
2023-05-12T15:12:49.475Z,102632.47
2023-05-12T15:15:20.259Z,102636.53
2023-05-12T15:17:50.977Z,102635.47
2023-05-12T15:20:22.155Z,102641.47
2023-05-12T15:22:53.716Z,102630.94
2023-05-12T15:25:24.066Z,102630.19
2023-05-12T15:27:54.748Z,102625.00
2023-05-12T15:30:25.424Z,102634.72
2023-05-12T15:32:55.760Z,102630.38
2023-05-12T15:35:26.411Z,102626.44
2023-05-12T15:37:56.969Z,102630.91
2023-05-12T15:40:28.216Z,102625.44
2023-05-12T15:42:59.416Z,102608.66
2023-05-12T15:45:32.798Z,102620.28
2023-05-12T15:48:03.162Z,102626.19
2023-05-12T15:50:33.806Z,102623.91
2023-05-12T15:53:04.176Z,102631.91
2023-05-12T15:55:34.905Z,102636.84
2023-05-12T15:58:05.666Z,102630.56
2023-05-12T16:00:35.995Z,102634.00
2023-05-12T16:03:06.327Z,102632.34
2023-05-12T16:05:39.362Z,102629.25
2023-05-12T16:08:10.603Z,102625.94
2023-05-12T16:10:41.320Z,102625.38
2023-05-12T16:13:11.677Z,102629.91
2023-05-12T16:15:42.028Z,102628.38
2023-05-12T16:18:12.949Z,102639.66
2023-05-12T16:20:45.901Z,102633.47
2023-05-12T16:23:16.253Z,102625.03
2023-05-12T16:25:47.149Z,102625.47
2023-05-12T16:28:17.873Z,102627.09
2023-05-12T16:30:48.331Z,102625.34
2023-05-12T16:33:18.816Z,102626.03
2023-05-12T16:35:49.025Z,102629.09
2023-05-12T16:38:19.595Z,102629.00
2023-05-12T16:40:50.801Z,102636.31
2023-05-12T16:43:21.091Z,102637.38
2023-05-12T16:45:59.761Z,102640.81
2023-05-12T16:48:35.643Z,102640.59
2023-05-12T16:51:07.595Z,102639.00
2023-05-12T16:53:38.063Z,102643.94
2023-05-12T16:56:08.802Z,102640.59
2023-05-12T16:58:38.973Z,102641.38
2023-05-12T17:01:09.747Z,102639.84
2023-05-12T17:03:40.558Z,102647.63
2023-05-12T17:06:11.142Z,102646.09
2023-05-12T17:08:41.476Z,102648.38
2023-05-12T17:11:11.738Z,102653.09
2023-05-12T17:13:41.916Z,102653.28
2023-05-12T17:16:11.998Z,102648.38
2023-05-12T17:21:16.785Z,102664.91
2023-05-12T17:23:47.212Z,102657.97
2023-05-12T17:26:17.772Z,102654.16
2023-05-12T17:28:48.444Z,102656.31
2023-05-12T17:31:19.183Z,102660.31
2023-05-12T17:33:49.931Z,102660.03
2023-05-12T17:36:20.332Z,102661.19
2023-05-12T17:38:52.030Z,102660.72
2023-05-12T17:41:22.572Z,102655.78
2023-05-12T17:43:53.807Z,102665.25
2023-05-12T17:46:24.532Z,102673.38
2023-05-12T17:48:54.777Z,102671.06
2023-05-12T17:51:25.536Z,102666.44
2023-05-12T17:53:55.813Z,102667.66
2023-05-12T17:56:26.225Z,102663.66
2023-05-12T17:58:57.032Z,102660.41
2023-05-12T18:01:28.033Z,102661.88
2023-05-12T18:03:58.461Z,102674.22
2023-05-12T18:06:28.911Z,102671.09
2023-05-12T18:08:59.258Z,102671.38
2023-05-12T18:11:30.687Z,102676.94
2023-05-12T18:14:03.377Z,102671.53
2023-05-12T18:16:34.715Z,102672.63
2023-05-12T18:19:05.462Z,102681.69
2023-05-12T18:21:37.851Z,102682.84
2023-05-12T18:24:08.387Z,102691.41
2023-05-12T18:26:38.472Z,102690.16
2023-05-12T18:29:08.870Z,102688.03
2023-05-12T18:31:39.561Z,102682.03
2023-05-12T18:34:09.990Z,102682.25
2023-05-12T18:36:40.648Z,102680.75
2023-05-12T18:39:12.000Z,102680.44
2023-05-12T18:41:42.370Z,102684.50
2023-05-12T18:44:13.073Z,102678.97
2023-05-12T18:46:43.497Z,102676.03
2023-05-12T18:49:13.695Z,102669.59
2023-05-12T18:51:44.067Z,102675.94
2023-05-12T18:54:14.464Z,102677.41
2023-05-12T18:56:45.140Z,102688.84
2023-05-12T18:59:15.745Z,102692.31
2023-05-12T19:01:46.303Z,102689.03
2023-05-12T19:04:17.628Z,102689.53
2023-05-12T19:06:48.202Z,102702.03
2023-05-12T19:09:18.680Z,102708.13
2023-05-12T19:11:49.501Z,102705.13
2023-05-12T19:14:21.219Z,102709.63
2023-05-12T19:16:51.924Z,102705.94
2023-05-12T19:19:22.691Z,102710.47
2023-05-12T19:21:54.904Z,102718.91
2023-05-12T19:24:26.528Z,102712.22
2023-05-12T19:26:57.242Z,102724.88
2023-05-12T19:29:29.276Z,102721.81
2023-05-12T19:32:15.686Z,102719.03
2023-05-12T19:34:59.695Z,102721.03
2023-05-12T19:37:31.275Z,102729.13
2023-05-12T19:40:01.797Z,102733.91
2023-05-12T19:42:34.032Z,102732.59
2023-05-12T19:45:04.486Z,102741.00
2023-05-12T19:47:35.648Z,102740.47
2023-05-12T19:50:06.254Z,102741.66
2023-05-12T19:52:36.693Z,102747.41
2023-05-12T19:55:07.943Z,102748.34
2023-05-12T19:57:38.964Z,102761.69
2023-05-12T20:00:10.058Z,102757.41
2023-05-12T20:02:43.071Z,102754.97
2023-05-12T20:05:13.896Z,102755.44
2023-05-12T20:07:44.035Z,102753.22
2023-05-12T20:10:14.569Z,102757.31
2023-05-12T20:12:44.885Z,102762.88
2023-05-12T20:15:15.566Z,102764.19
2023-05-12T20:17:48.746Z,102761.41
2023-05-12T20:20:19.240Z,102765.47
2023-05-12T20:22:50.426Z,102761.19
2023-05-12T20:25:21.308Z,102762.47
2023-05-12T20:27:52.044Z,102759.22
2023-05-12T20:30:22.380Z,102760.97
2023-05-12T20:32:52.775Z,102761.16
2023-05-12T20:35:23.542Z,102758.72
2023-05-12T20:37:54.036Z,102740.03
2023-05-12T20:40:24.984Z,102733.50
2023-05-12T20:42:55.504Z,102727.06
2023-05-12T20:45:26.009Z,102722.47
2023-05-12T20:47:56.784Z,102723.97
2023-05-12T20:50:28.769Z,102729.84
2023-05-12T20:53:08.834Z,102724.59
2023-05-12T20:55:39.324Z,102723.13
2023-05-12T20:58:09.868Z,102726.56
2023-05-12T21:00:40.017Z,102725.31
2023-05-12T21:03:15.712Z,102726.22
2023-05-12T21:05:49.469Z,102728.13
2023-05-12T21:08:19.980Z,102726.28
2023-05-12T21:10:50.294Z,102729.75
2023-05-12T21:13:21.033Z,102722.84
2023-05-12T21:15:51.494Z,102722.84
2023-05-12T21:18:22.198Z,102732.41
2023-05-12T21:20:52.505Z,102726.19
2023-05-12T21:23:23.661Z,102732.69
2023-05-12T21:25:57.410Z,102726.53
2023-05-12T21:28:28.281Z,102720.53
2023-05-12T21:30:58.703Z,102716.63
2023-05-12T21:33:29.335Z,102719.69
2023-05-12T21:35:59.659Z,102715.34
2023-05-12T21:38:29.914Z,102709.28
2023-05-12T21:41:00.316Z,102712.81
2023-05-12T21:43:30.913Z,102699.91
2023-05-12T21:46:05.138Z,102702.94
2023-05-12T21:48:35.859Z,102697.75
2023-05-12T21:51:06.333Z,102697.72
2023-05-12T21:53:36.793Z,102697.34
2023-05-12T21:56:07.520Z,102696.97
2023-05-12T21:58:38.443Z,102695.31
2023-05-12T22:01:09.159Z,102705.00
2023-05-12T22:03:39.717Z,102704.19
2023-05-12T22:06:10.199Z,102704.91
2023-05-12T22:08:40.651Z,102709.44
2023-05-12T22:11:11.428Z,102707.00
2023-05-12T22:13:43.766Z,102702.03
2023-05-12T22:16:14.334Z,102700.22
2023-05-12T22:18:47.627Z,102704.34
2023-05-12T22:21:18.105Z,102702.69
2023-05-12T22:23:49.107Z,102705.03
2023-05-12T22:26:19.536Z,102697.31
2023-05-12T22:28:50.053Z,102696.47
2023-05-12T22:31:20.426Z,102688.34
2023-05-12T22:33:51.107Z,102684.88
2023-05-12T22:36:21.442Z,102678.75
2023-05-12T22:38:51.990Z,102675.41
2023-05-12T22:41:22.347Z,102677.19
2023-05-12T22:43:53.128Z,102672.13
2023-05-12T22:46:23.596Z,102666.94
2023-05-12T22:48:54.118Z,102667.91
2023-05-12T22:51:24.754Z,102664.81
2023-05-12T22:53:56.154Z,102671.75
2023-05-12T22:56:26.539Z,102662.81
2023-05-12T22:58:56.706Z,102666.88
2023-05-12T23:01:27.236Z,102655.28
2023-05-12T23:03:57.772Z,102663.34
2023-05-12T23:06:28.152Z,102658.72
2023-05-12T23:08:58.883Z,102642.41
2023-05-12T23:11:29.098Z,102653.53
2023-05-12T23:13:59.622Z,102655.69
2023-05-12T23:16:30.197Z,102650.59
2023-05-12T23:19:00.552Z,102648.03
2023-05-12T23:21:30.878Z,102651.91
2023-05-12T23:24:01.639Z,102646.69
2023-05-12T23:26:32.035Z,102647.88
2023-05-12T23:29:02.557Z,102633.91
2023-05-12T23:31:32.803Z,102629.78
2023-05-12T23:34:03.372Z,102624.44
2023-05-12T23:36:33.730Z,102621.16
2023-05-12T23:39:04.197Z,102624.69
2023-05-12T23:41:35.427Z,102619.56
2023-05-12T23:44:06.103Z,102615.41
2023-05-12T23:46:36.672Z,102613.63
2023-05-12T23:49:07.728Z,102607.25
2023-05-12T23:51:37.934Z,102601.81
2023-05-12T23:54:08.694Z,102609.16
2023-05-12T23:56:39.002Z,102594.66
2023-05-12T23:59:09.478Z,102596.00
